• Join FlightAware (Why Join?)
  • Login
  • US Flag GB Flag 
23:33 EDT


 

Airport Tracker/Info


-or-


 

Live Flight TrackerFlight Track Log ✈ DAL268 ✈ 20-Apr-2013 ✈ KATL - KJFK

Flight Track Log - Related Links

Times and Time Zones

All times are in EDT time to prevent confusion due to time zone crossing. See the DAL268 flight status page for this flight to view local times or setup timezone preferences in your user account.

Time Position Orientation Groundspeed Altitude Reporting Facility
EDT Latitude Longitude Course Direction KTS MPH feet Rate Location/Type
18:48 33.6306 -84.4878 64° Northeast 430 495 2,500  Level Atlanta Center
18:49 33.6167 -84.5167 240° Southwest 230 265 3,200 2,460 Climbing Atlanta TRACON
18:50 33.5667 -84.5833 228° Southwest 281 323 6,300 2,160 Climbing Atlanta TRACON
18:51 33.7090 -83.9868 101° East  Level FlightAware Approximate
18:52 33.6848 -83.8417 101° East  Level FlightAware Approximate
18:52 33.4511 -84.4544 137° Southeast 248 285 11,000  Level Atlanta Center
18:53 33.6606 -83.6966 101° East  Level FlightAware Approximate
18:53 33.4558 -84.3250 87° East 313 360 12,700  Level Atlanta Center
18:54 33.6806 -83.5585 64° Northeast  Level FlightAware Approximate
18:54 33.4914 -84.1933 72° East 380 437 15,000  Level Atlanta Center
18:55 33.5458 -84.0611 64° Northeast 409 471 17,000 1,860 Climbing Atlanta Center
18:56 33.6000 -83.9267 64° Northeast 434 499 18,800 1,800 Climbing Atlanta Center
18:57 33.6333 -83.7819 74° East 449 517 20,600 1,620 Climbing Atlanta Center
18:58 33.6683 -83.6269 75° East 466 536 22,100 1,440 Climbing Atlanta Center
18:59 33.7283 -83.4694 65° Northeast 474 545 23,500 1,440 Climbing Atlanta Center
19:00 33.7858 -83.3189 65° Northeast 481 554 25,000 1,620 Climbing Atlanta Center
19:01 33.8456 -83.1733 64° Northeast 487 560 26,800 1,500 Climbing Atlanta Center
19:02 33.9028 -83.0253 65° Northeast 481 554 28,000 1,140 Climbing Atlanta Center
19:03 33.9661 -82.8767 63° Northeast 486 559 29,100 1,200 Climbing Atlanta Center
19:04 34.0272 -82.7328 63° Northeast 481 554 30,500 900 Climbing Atlanta Center
19:05 34.0861 -82.5867 64° Northeast 481 554 31,000 240 Climbing Atlanta Center
19:06 34.1450 -82.4525 62° Northeast 481 554 31,000  Level Atlanta Center
19:07 34.2119 -82.3056 61° Northeast 487 560 31,000  Level Atlanta Center
19:08 34.2786 -82.1583 61° Northeast 498 573 31,000  Level Atlanta Center
19:09 34.3472 -82.0083 61° Northeast 498 573 31,000  Level Atlanta Center
19:10 34.4178 -81.8633 59° Northeast 503 579 31,000  Level Atlanta Center
19:11 34.4861 -81.7128 61° Northeast 503 579 31,000  Level Atlanta Center
19:12 34.5561 -81.5619 61° Northeast 508 585 31,000  Level Atlanta Center
19:13 34.6281 -81.4108 60° Northeast 508 585 31,000  Level Atlanta Center
19:14 34.7058 -81.2467 60° Northeast 508 585 31,000  Level Atlanta Center
19:15 34.7794 -81.0900 60° Northeast 520 598 31,000  Level Atlanta Center
19:16 34.8467 -80.9383 62° Northeast 520 598 31,000  Level Atlanta Center
19:17 34.9197 -80.7836 60° Northeast 515 593 31,100 600 Climbing Atlanta Center
19:19 35.0383 -80.5208 61° Northeast 548 631 32,700 660 Climbing Washington Center
19:20 35.1092 -80.3653 61° Northeast 526 605 33,000 120 Climbing Washington Center
19:21 35.1825 -80.2044 61° Northeast 526 605 33,000  Level Washington Center
19:22 35.2619 -80.0308 61° Northeast 526 605 33,000  Level Washington Center
19:23 35.3325 -79.8692 62° Northeast 526 605 33,000  Level Washington Center
19:24 35.4050 -79.7050 62° Northeast 526 605 33,000  Level Washington Center
19:25 35.4794 -79.5431 61° Northeast 526 605 33,000  Level Washington Center
19:26 35.5536 -79.3781 61° Northeast 531 611 33,000  Level Washington Center
19:27 35.6233 -79.2153 62° Northeast 531 611 33,000  Level Washington Center
19:28 35.6903 -79.0675 61° Northeast 531 611 33,000  Level Washington Center
19:29 35.7642 -78.8967 62° Northeast 542 624 33,000  Level Washington Center
19:30 35.8375 -78.7281 62° Northeast 547 629 33,000  Level Washington Center
19:31 35.9108 -78.5567 62° Northeast 547 629 33,000  Level Washington Center
19:32 35.9836 -78.3872 62° Northeast 547 629 33,000  Level Washington Center
19:33 36.0542 -78.2203 62° Northeast 547 629 33,000  Level Washington Center
19:34 36.1267 -78.0531 62° Northeast 542 624 33,000  Level Washington Center
19:35 36.1944 -77.8931 62° Northeast 542 624 33,000  Level Washington Center
19:36 36.2644 -77.7275 62° Northeast 537 618 33,000  Level Washington Center
19:37 36.3317 -77.5669 63° Northeast 531 611 33,000  Level Washington Center
19:38 36.4033 -77.3881 63° Northeast 526 605 33,000  Level Washington Center
19:39 36.4831 -77.2244 59° Northeast 531 611 33,000  Level Washington Center
19:40 36.5911 -77.0897 45° Northeast 540 621 33,000  Level Washington Center
19:41 36.7094 -76.9625 41° Northeast 540 621 33,000  Level Washington Center
19:42 36.8256 -76.8347 41° Northeast 550 633 33,000  Level Washington Center
19:43 36.9331 -76.7194 41° Northeast 556 640 33,000  Level Washington Center
19:44 37.0489 -76.5911 41° Northeast 556 640 33,000 -960 Level Washington Center
19:45 37.1667 -76.4650 40° Northeast 556 640 31,200 -1,020 Descending Washington Center
19:46 37.2844 -76.3331 42° Northeast 556 640 31,000 -120 Descending Washington Center
19:47 37.4042 -76.2036 41° Northeast 556 640 31,000  Level Washington Center
19:48 37.5383 -76.0553 41° Northeast 567 652 31,000  Level Washington Center
19:49 37.6575 -75.9250 41° Northeast 567 652 31,000  Level Washington Center
19:50 37.7747 -75.7914 42° Northeast 567 652 31,000  Level Washington Center
19:51 37.8958 -75.6575 41° Northeast 567 652 31,000  Level Washington Center
19:52 38.0167 -75.5233 41° Northeast 567 652 31,000  Level Washington Center
19:53 38.1522 -75.4094 33° Northeast 567 652 31,000  Level Washington Center
19:54 38.2958 -75.3167 27° Northeast 572 658 31,000 -60 Level Washington Center
19:55 38.4269 -75.2314 27° Northeast 572 658 30,900  Descending Washington Center
19:56 38.5747 -75.1428 25° Northeast 572 658 31,000  Climbing Washington Center
19:57 38.7203 -75.0489 27° Northeast 577 664 31,000 -240 Level Washington Center
19:58 38.8656 -74.9572 26° Northeast 577 664 30,600 -1,380 Descending Washington Center
19:59 39.0111 -74.8622 27° Northeast 577 664 28,300 -2,160 Descending Washington Center
20:00 39.1439 -74.7592 31° Northeast 564 649 26,300 -2,160 Descending Washington Center
20:02 39.3617 -74.5247 40° Northeast 518 596 22,000 -2,220 Descending New York Center
20:03 39.4656 -74.4092 41° Northeast 499 574 19,900 -2,040 Descending New York Center
20:04 39.5497 -74.3114 42° Northeast 467 537 18,000 -1,020 Descending New York Center
20:05 39.6486 -74.2083 39° Northeast 452 520 17,900 -1,440 Descending New York Center
20:06 39.7522 -74.0919 41° Northeast 445 512 15,200 -2,400 Descending New York Center
20:07 39.8425 -73.9936 40° Northeast 434 499 13,100 -1,920 Descending New York Center
20:08 39.9361 -73.9194 31° Northeast 408 470 11,500 -1,080 Descending New York Center
20:09 40.0128 -73.8578 32° Northeast 375 432 11,000 -300 Descending New York Center
20:10 40.0961 -73.7856 34° Northeast 332 382 10,900 -660 Descending New York Center
20:11 40.1664 -73.7233 34° Northeast 315 362 9,700 -1,140 Descending New York Center
20:11 40.1833 -73.7000 46° Northeast 299 344 9,500 -1,200 Descending New York TRACON
20:12 40.2500 -73.6500 30° Northeast 283 326 8,200 -1,500 Descending New York TRACON
20:13 40.3006 -73.6094 31° Northeast 278 320 6,900 -1,740 Descending New York Center
20:14 40.3619 -73.5656 29° Northeast 267 307 5,200 -1,920 Descending New York Center
20:14 40.3833 -73.5500 29° Northeast 256 295 4,400 -1,020 Descending New York TRACON
20:15 40.4500 -73.5167 21° North 253 291 3,900 -660 Descending New York TRACON
20:17 40.5333 -73.5167 360° North 250 288 3,100 -480 Descending New York TRACON
20:18 40.6000 -73.5333 349° North 239 275 3,000 -300 Descending New York TRACON
20:19 40.6500 -73.5667 333° Northwest 219 252 2,500 -600 Descending New York TRACON
20:20 40.6833 -73.6000 323° Northwest 166 191 1,800 -720 Descending New York TRACON